TimeMDT,TemperatureF,Dew PointF,Humidity,Sea Level PressureIn,VisibilityMPH,Wind Direction,Wind SpeedMPH,Gust SpeedMPH,PrecipitationIn,Events,Conditions,WindDirDegrees,DateUTC
12:18 AM,64.4,59.0,83,30.13,6.0,East,12.7,21.9,0.04,Rain-Thunderstorm,Thunderstorms and Rain,100,2013-08-04 06:18:00
12:53 AM,62.1,60.1,93,30.11,5.0,North,17.3,23.0,0.16,Rain-Thunderstorm,Thunderstorms and Rain,10,2013-08-04 06:53:00
1:03 AM,62.6,57.2,82,30.17,2.5,North,16.1,29.9,0.10,Rain-Thunderstorm,Heavy Thunderstorms and Rain,360,2013-08-04 07:03:00
1:08 AM,60.8,59.0,94,30.16,1.8,NNE,17.3,29.9,0.23,Rain-Thunderstorm,Heavy Thunderstorms and Rain,20,2013-08-04 07:08:00
1:22 AM,60.8,59.0,94,30.18,1.8,North,16.1,26.5,0.46,Rain-Thunderstorm,Heavy Thunderstorms and Rain,10,2013-08-04 07:22:00
1:53 AM,59.0,57.9,96,30.09,3.0,ENE,28.8,34.5,0.90,Rain,Rain,60,2013-08-04 07:53:00
2:02 AM,59.0,57.2,94,30.12,6.0,East,25.3,35.7,0.01,Rain,Light Rain,80,2013-08-04 08:02:00
2:53 AM,59.0,55.9,90,30.06,10.0,ESE,27.6,39.1,0.02,,Clear,110,2013-08-04 08:53:00
3:53 AM,59.0,55.0,87,30.01,10.0,SE,24.2,35.7,0.01,,Mostly Cloudy,130,2013-08-04 09:53:00
4:06 AM,59.0,55.4,88,30.05,10.0,SE,26.5,36.8,N/A,,Mostly Cloudy,130,2013-08-04 10:06:00
4:38 AM,59.0,55.4,88,30.05,10.0,SE,19.6,34.5,N/A,,Overcast,130,2013-08-04 10:38:00
4:53 AM,57.9,55.0,90,30.00,10.0,SE,20.7,29.9,N/A,,Overcast,130,2013-08-04 10:53:00
5:53 AM,57.9,55.9,93,30.03,10.0,SE,18.4,23.0,N/A,,Overcast,140,2013-08-04 11:53:00
6:53 AM,59.0,57.0,93,30.04,10.0,SSE,12.7,21.9,N/A,,Overcast,150,2013-08-04 12:53:00
7:53 AM,60.1,57.0,90,30.06,7.0,SSE,11.5,18.4,N/A,,Overcast,160,2013-08-04 13:53:00
8:53 AM,60.1,57.9,93,30.06,10.0,South,10.4,-,N/A,,Overcast,170,2013-08-04 14:53:00
9:53 AM,62.1,59.0,90,30.05,9.0,South,11.5,-,N/A,,Overcast,190,2013-08-04 15:53:00
10:53 AM,64.9,61.0,87,30.03,10.0,SSW,5.8,-,N/A,,Overcast,200,2013-08-04 16:53:00
11:30 AM,66.2,62.6,88,30.06,10.0,SSW,4.6,-,N/A,,Overcast,210,2013-08-04 17:30:00
11:53 AM,69.1,63.0,81,30.01,10.0,SW,5.8,-,N/A,,Overcast,220,2013-08-04 17:53:00
12:53 PM,70.0,63.0,78,30.01,10.0,NW,6.9,-,N/A,,Overcast,320,2013-08-04 18:53:00
1:31 PM,69.8,62.6,78,30.04,10.0,NNW,5.8,-,N/A,,Overcast,330,2013-08-04 19:31:00
1:53 PM,71.1,63.0,75,30.01,10.0,NNE,4.6,-,N/A,,Overcast,30,2013-08-04 19:53:00
2:53 PM,73.0,63.0,71,30.00,10.0,NNE,4.6,-,N/A,,Overcast,20,2013-08-04 20:53:00
3:53 PM,75.0,64.0,69,29.98,10.0,ENE,5.8,-,N/A,,Overcast,70,2013-08-04 21:53:00
4:11 PM,73.4,62.6,69,30.01,10.0,East,5.8,-,N/A,,Overcast,80,2013-08-04 22:11:00
4:53 PM,73.0,64.0,73,29.96,10.0,ESE,5.8,-,N/A,,Mostly Cloudy,110,2013-08-04 22:53:00
5:14 PM,71.6,64.4,78,30.00,10.0,East,6.9,-,N/A,,Mostly Cloudy,100,2013-08-04 23:14:00
5:50 PM,71.6,62.6,73,29.99,10.0,ESE,5.8,-,N/A,,Overcast,110,2013-08-04 23:50:00
5:53 PM,72.0,64.0,76,29.96,10.0,ESE,5.8,-,N/A,,Overcast,120,2013-08-04 23:53:00
6:53 PM,72.0,63.0,73,29.96,10.0,SE,3.5,-,N/A,,Scattered Clouds,130,2013-08-05 00:53:00
7:53 PM,69.1,63.0,81,29.97,10.0,SSE,3.5,-,N/A,,Clear,160,2013-08-05 01:53:00
8:53 PM,66.9,63.0,87,30.00,10.0,Calm,Calm,-,N/A,,Scattered Clouds,0,2013-08-05 02:53:00
9:53 PM,64.9,62.1,90,29.99,10.0,SE,4.6,-,N/A,,Scattered Clouds,140,2013-08-05 03:53:00
10:53 PM,64.0,61.0,90,29.99,10.0,SSE,3.5,-,N/A,,Clear,150,2013-08-05 04:53:00
11:53 PM,62.1,60.1,93,29.98,9.0,Calm,Calm,-,N/A,,Clear,0,2013-08-05 05:53:00